Time;durP1;ratioP1;P1;durP2;ratioP2;P2;SDS_P1;SDS_P2;PMS_P1;PMS_P2;Temp;Humidity;BMP_temperature;BMP_pressure;BME280_temperature;BME280_humidity;BME280_pressure;Samples;Min_cycle;Max_cycle;Signal;HPM_P1;HPM_P2
2023/12/02 00:01:23;;;;;;;30.77;15.93;;;;;;;3.62;100.00;98586.59;5073176;28;20110;-42
2023/12/02 00:03:52;;;;;;;39.40;16.80;;;;;;;3.45;100.00;98595.47;5073322;28;20044;-40
2023/12/02 00:06:21;;;;;;;36.65;17.30;;;;;;;3.64;100.00;98597.88;5072887;28;20060;-41
2023/12/02 00:08:50;;;;;;;39.97;17.55;;;;;;;3.65;100.00;98596.94;5072998;28;20070;-41
2023/12/02 00:11:18;;;;;;;41.58;15.85;;;;;;;3.58;100.00;98585.09;5072506;28;20131;-43
2023/12/02 00:13:47;;;;;;;38.10;16.08;;;;;;;3.70;100.00;98578.22;5072761;28;20146;-41
2023/12/02 00:16:15;;;;;;;38.10;15.43;;;;;;;3.59;100.00;98591.19;5072564;28;20052;-41
2023/12/02 00:18:44;;;;;;;50.63;15.52;;;;;;;3.38;100.00;98583.59;5073193;28;20116;-41
2023/12/02 00:21:12;;;;;;;44.22;16.58;;;;;;;3.27;100.00;98579.84;5073543;28;20071;-44
2023/12/02 00:26:11;;;;;;;43.83;16.75;;;;;;;3.55;100.00;98587.03;5110595;27;20907;-41
2023/12/02 00:28:39;;;;;;;35.63;16.25;;;;;;;3.75;100.00;98597.25;5109978;28;20063;-40
2023/12/02 00:31:08;;;;;;;34.03;16.20;;;;;;;3.74;100.00;98599.03;5109752;28;20134;-40
2023/12/02 00:33:36;;;;;;;37.17;17.30;;;;;;;3.78;100.00;98580.44;5109936;28;20051;-40
2023/12/02 00:36:06;;;;;;;38.78;16.80;;;;;;;3.82;100.00;98579.28;5110714;28;20097;-41
2023/12/02 00:38:34;;;;;;;41.03;16.88;;;;;;;3.85;100.00;98587.88;5111368;28;20046;-41
2023/12/02 00:41:03;;;;;;;37.95;16.33;;;;;;;3.91;100.00;98576.97;5109991;28;20039;-40
2023/12/02 00:43:32;;;;;;;41.30;16.42;;;;;;;3.80;100.00;98575.91;5110346;28;20474;-40
2023/12/02 00:46:01;;;;;;;36.15;16.80;;;;;;;3.83;100.00;98584.47;5109847;28;20132;-41
2023/12/02 00:48:29;;;;;;;37.17;16.00;;;;;;;3.97;100.00;98596.88;5109394;28;20040;-40
2023/12/02 00:51:00;;;;;;;53.42;17.92;;;;;;;3.60;100.00;98582.34;5109169;28;20429;-42
2023/12/02 00:53:29;;;;;;;51.40;17.98;;;;;;;3.34;100.00;98581.22;5108762;28;20048;-44
2023/12/02 00:55:58;;;;;;;39.13;16.05;;;;;;;3.58;100.00;98585.09;5109098;28;20061;-41
2023/12/02 00:58:27;;;;;;;51.40;17.48;;;;;;;3.48;100.00;98589.19;5109049;28;20135;-41
2023/12/02 01:01:10;;;;;;;46.13;17.88;;;;;;;3.37;100.00;98571.31;5108816;28;20044;-42
2023/12/02 01:03:38;;;;;;;46.95;17.42;;;;;;;3.41;100.00;98583.41;5108628;28;20051;-41
2023/12/02 01:06:07;;;;;;;43.40;17.40;;;;;;;3.35;100.00;98578.47;5108545;28;20047;-41
2023/12/02 01:08:36;;;;;;;37.28;17.92;;;;;;;3.59;100.00;98570.97;5108846;28;20133;-40
2023/12/02 01:11:04;;;;;;;47.90;18.13;;;;;;;3.45;100.00;98555.94;5108645;28;20043;-41
2023/12/02 01:13:33;;;;;;;53.88;17.83;;;;;;;3.31;100.00;98557.69;5108654;28;20044;-41
2023/12/02 01:16:01;;;;;;;57.22;17.95;;;;;;;3.44;100.00;98551.59;5108669;28;20047;-40
2023/12/02 01:18:31;;;;;;;48.50;18.50;;;;;;;3.53;100.00;98562.53;5108345;28;20054;-41
2023/12/02 01:20:59;;;;;;;47.08;18.27;;;;;;;3.66;100.00;98574.91;5108181;28;20044;-39
2023/12/02 01:23:27;;;;;;;43.80;18.30;;;;;;;3.68;100.00;98564.31;5108624;28;20040;-40
2023/12/02 01:25:56;;;;;;;48.45;18.75;;;;;;;3.70;100.00;98551.88;5108310;28;20052;-42
2023/12/02 01:28:25;;;;;;;47.03;18.15;;;;;;;3.69;100.00;98561.56;5108411;28;20050;-40
2023/12/02 01:30:53;;;;;;;58.13;17.70;;;;;;;3.57;100.00;98562.28;5108317;28;20461;-41
2023/12/02 01:33:22;;;;;;;47.13;17.55;;;;;;;3.45;100.00;98555.94;5108055;28;20083;-45
2023/12/02 01:35:51;;;;;;;47.55;18.05;;;;;;;3.37;100.00;98557.31;5104064;28;20086;-41
2023/12/02 01:38:20;;;;;;;51.08;17.60;;;;;;;3.43;100.00;98551.69;5094717;28;20389;-42
2023/12/02 01:40:48;;;;;;;43.53;17.45;;;;;;;3.66;100.00;98556.44;5094470;28;20051;-40
2023/12/02 01:43:24;;;;;;;43.95;16.45;;;;;;;3.51;100.00;98545.97;5094497;28;20210;-42
2023/12/02 01:45:52;;;;;;;51.78;17.00;;;;;;;3.47;100.00;98547.91;5094663;28;20044;-41
2023/12/02 01:48:23;;;;;;;69.72;17.92;;;;;;;3.42;100.00;98550.84;5094395;28;20109;-41
2023/12/02 01:50:53;;;;;;;53.83;16.17;;;;;;;3.50;100.00;98544.28;5094393;28;20048;-43
2023/12/02 01:53:21;;;;;;;43.60;16.75;;;;;;;3.47;100.00;98549.72;5094376;28;20047;-42
2023/12/02 01:55:50;;;;;;;55.08;16.95;;;;;;;3.72;100.00;98544.72;5094264;28;20365;-46
2023/12/02 01:58:19;;;;;;;44.50;15.98;;;;;;;3.77;100.00;98537.38;5094071;28;20611;-40
2023/12/02 02:00:47;;;;;;;60.03;16.75;;;;;;;3.76;100.00;98538.28;5095068;28;20055;-40
2023/12/02 02:03:16;;;;;;;56.97;17.73;;;;;;;3.65;100.00;98538.09;5097410;28;20051;-42
2023/12/02 02:05:45;;;;;;;47.45;16.20;;;;;;;3.62;100.00;98533.00;5096813;28;20484;-42
2023/12/02 02:08:14;;;;;;;44.20;15.88;;;;;;;3.70;100.00;98530.78;5095783;28;20071;-42
2023/12/02 02:10:43;;;;;;;53.58;15.45;;;;;;;3.73;100.00;98509.47;5095491;28;20054;-41
2023/12/02 02:13:11;;;;;;;39.65;15.43;;;;;;;3.69;100.00;98518.53;5095989;28;20127;-42
2023/12/02 02:15:39;;;;;;;58.30;16.17;;;;;;;3.59;100.00;98522.66;5094501;28;20055;-41
2023/12/02 02:18:07;;;;;;;44.88;16.33;;;;;;;3.69;100.00;98502.72;5094593;28;20420;-41
2023/12/02 02:20:36;;;;;;;41.17;15.55;;;;;;;3.62;100.00;98501.38;5093882;28;20048;-40
2023/12/02 02:23:06;;;;;;;52.53;15.70;;;;;;;3.56;100.00;98491.19;5093709;28;20048;-41
2023/12/02 02:25:34;;;;;;;50.22;15.57;;;;;;;3.53;100.00;98499.28;5093539;28;20087;-41
2023/12/02 02:28:02;;;;;;;54.83;16.10;;;;;;;3.54;100.00;98508.88;5093561;28;20051;-40
2023/12/02 02:30:30;;;;;;;48.03;14.70;;;;;;;3.58;100.00;98505.13;5093575;28;20153;-41
2023/12/02 02:32:59;;;;;;;44.97;15.93;;;;;;;3.78;100.00;98511.84;5093544;28;20051;-40
2023/12/02 02:35:32;;;;;;;49.05;14.70;;;;;;;3.65;100.00;98506.44;5093482;28;20051;-41
2023/12/02 02:38:01;;;;;;;59.78;16.15;;;;;;;3.83;100.00;98500.06;5093375;28;20052;-40
2023/12/02 02:40:31;;;;;;;50.47;16.15;;;;;;;3.72;100.00;98484.91;5093473;28;20491;-41
2023/12/02 02:42:59;;;;;;;47.97;15.15;;;;;;;3.69;100.00;98478.97;5093227;28;20052;-41
2023/12/02 02:45:27;;;;;;;60.08;16.50;;;;;;;3.60;100.00;98488.28;5093214;28;20047;-41
2023/12/02 02:47:56;;;;;;;58.67;15.90;;;;;;;3.72;100.00;98481.41;5092178;28;20101;-42
2023/12/02 02:50:24;;;;;;;40.67;15.65;;;;;;;3.72;100.00;98484.06;5093256;28;20047;-41
2023/12/02 02:52:52;;;;;;;64.72;15.93;;;;;;;3.72;100.00;98481.41;5093003;28;20135;-40
2023/12/02 02:55:20;;;;;;;52.90;15.88;;;;;;;3.77;100.00;98489.91;5092889;28;20489;-41
2023/12/02 02:57:50;;;;;;;49.83;16.58;;;;;;;3.80;100.00;98476.53;5093252;28;20448;-41
2023/12/02 03:00:19;;;;;;;47.00;15.90;;;;;;;3.92;100.00;98504.78;5093016;28;20048;-40
2023/12/02 03:02:47;;;;;;;43.88;16.08;;;;;;;3.88;100.00;98479.56;5093207;28;20044;-41
2023/12/02 03:05:16;;;;;;;53.42;16.23;;;;;;;3.76;100.00;98487.34;5092713;28;20416;-40
2023/12/02 03:07:44;;;;;;;49.13;15.13;;;;;;;3.80;100.00;98470.41;5093222;28;20077;-41
2023/12/02 03:10:13;;;;;;;43.97;14.45;;;;;;;3.80;100.00;98476.53;5093317;28;20048;-41
2023/12/02 03:12:41;;;;;;;52.05;15.48;;;;;;;3.84;100.00;98475.38;5092987;28;20480;-40
2023/12/02 03:15:11;;;;;;;53.63;15.10;;;;;;;3.70;100.00;98475.41;5092662;28;20043;-39
2023/12/02 03:17:42;;;;;;;56.60;16.10;;;;;;;3.72;100.00;98481.41;5092747;28;20147;-41
2023/12/02 03:20:17;;;;;;;62.08;15.90;;;;;;;3.65;100.00;98456.34;5092402;28;20497;-40
2023/12/02 03:22:45;;;;;;;52.35;15.45;;;;;;;3.76;100.00;98472.38;5092426;28;20052;-40
2023/12/02 03:25:14;;;;;;;55.33;16.48;;;;;;;3.60;100.00;98476.88;5092390;28;20135;-40
2023/12/02 03:27:43;;;;;;;49.53;15.57;;;;;;;3.90;100.00;98469.75;5092474;28;20417;-40
2023/12/02 03:30:13;;;;;;;48.38;16.25;;;;;;;4.00;100.00;98473.53;5092310;28;20123;-42
2023/12/02 03:32:42;;;;;;;50.63;16.17;;;;;;;3.83;100.00;98468.41;5092520;28;20091;-41
2023/12/02 03:35:11;;;;;;;67.93;16.05;;;;;;;3.93;100.00;98480.09;5092426;28;20481;-42
2023/12/02 03:37:39;;;;;;;51.13;16.38;;;;;;;4.11;100.00;98477.28;5092614;28;20048;-40
2023/12/02 03:40:10;;;;;;;53.13;16.55;;;;;;;4.22;100.00;98469.53;5092281;28;20108;-42
2023/12/02 03:42:41;;;;;;;55.03;15.95;;;;;;;4.12;100.00;98465.78;5092178;28;20059;-40
2023/12/02 03:45:11;;;;;;;39.60;14.45;;;;;;;4.17;100.00;98447.88;5092242;28;20200;-40
2023/12/02 03:47:41;;;;;;;83.57;16.25;;;;;;;3.98;100.00;98445.53;5092304;28;20143;-40
2023/12/02 03:50:10;;;;;;;46.13;15.50;;;;;;;4.14;100.00;98440.13;5092091;28;20044;-41
2023/12/02 03:52:40;;;;;;;48.95;13.68;;;;;;;4.09;100.00;98451.00;5091940;28;20412;-40
2023/12/02 03:55:09;;;;;;;51.22;15.45;;;;;;;3.93;100.00;98444.97;5091980;28;20054;-41
2023/12/02 03:57:37;;;;;;;51.28;14.43;;;;;;;3.83;100.00;98452.59;5091857;28;20080;-40
2023/12/02 04:00:10;;;;;;;39.22;14.43;;;;;;;4.00;100.00;98444.50;5092082;28;20075;-41
2023/12/02 04:02:43;;;;;;;51.25;13.98;;;;;;;3.93;100.00;98443.19;5091843;28;20048;-39
2023/12/02 04:05:13;;;;;;;54.25;16.13;;;;;;;3.91;100.00;98444.22;5091892;28;20581;-41
2023/12/02 04:07:42;;;;;;;50.10;17.75;;;;;;;4.10;100.00;98447.41;5091912;28;20070;-42
2023/12/02 04:10:11;;;;;;;67.32;17.20;;;;;;;4.06;100.00;98450.34;5091636;28;20537;-41
2023/12/02 04:12:40;;;;;;;53.63;16.85;;;;;;;3.96;100.00;98458.84;5091594;28;20499;-40
2023/12/02 04:15:10;;;;;;;45.80;16.05;;;;;;;3.94;100.00;98462.50;5091977;28;20048;-43
2023/12/02 04:17:39;;;;;;;38.45;15.73;;;;;;;4.16;100.00;98454.13;5092211;28;20048;-40
2023/12/02 04:20:10;;;;;;;69.20;15.93;;;;;;;3.97;100.00;98459.69;5091858;28;20151;-39
2023/12/02 04:22:39;;;;;;;51.13;14.73;;;;;;;3.98;100.00;98462.22;5091618;28;20439;-40
2023/12/02 04:25:08;;;;;;;51.22;16.83;;;;;;;3.89;100.00;98456.66;5091502;28;20036;-40
2023/12/02 04:27:37;;;;;;;46.50;14.95;;;;;;;4.03;100.00;98452.22;5091814;28;20048;-43
2023/12/02 04:30:06;;;;;;;40.25;14.75;;;;;;;4.24;100.00;98454.44;5091761;28;20097;-40
2023/12/02 04:32:35;;;;;;;64.50;19.80;;;;;;;3.95;100.00;98465.03;5091702;28;20546;-41
2023/12/02 04:35:05;;;;;;;50.85;16.77;;;;;;;4.10;100.00;98468.53;5091937;28;20086;-41
2023/12/02 04:37:35;;;;;;;46.33;15.48;;;;;;;4.05;100.00;98467.09;5091603;28;20514;-41
2023/12/02 04:40:04;;;;;;;65.80;13.90;;;;;;;3.92;100.00;98462.59;5091723;28;20141;-42
2023/12/02 04:42:32;;;;;;;46.58;13.82;;;;;;;3.96;100.00;98450.06;5091593;28;20040;-40
2023/12/02 04:45:01;;;;;;;45.65;13.45;;;;;;;4.03;100.00;98454.84;5091872;28;20044;-41
2023/12/02 04:47:29;;;;;;;48.38;14.15;;;;;;;4.01;100.00;98454.09;5091754;28;20051;-40
2023/12/02 04:49:58;;;;;;;43.60;13.65;;;;;;;3.97;100.00;98452.63;5091249;28;20048;-40
2023/12/02 04:52:26;;;;;;;52.42;13.85;;;;;;;3.86;100.00;98452.44;5091449;28;20040;-40
2023/12/02 04:54:56;;;;;;;45.92;12.65;;;;;;;3.92;100.00;98449.41;5091694;28;20091;-40
2023/12/02 04:57:24;;;;;;;45.53;13.77;;;;;;;4.09;100.00;98429.03;5091525;28;20056;-41
2023/12/02 04:59:52;;;;;;;55.90;13.32;;;;;;;3.89;100.00;98436.41;5091401;28;20113;-41
2023/12/02 05:02:21;;;;;;;44.85;14.35;;;;;;;4.00;100.00;98433.94;5091369;28;20105;-40
2023/12/02 05:04:49;;;;;;;49.00;14.48;;;;;;;4.09;100.00;98429.03;5091381;28;20554;-41
2023/12/02 05:07:18;;;;;;;43.38;13.98;;;;;;;3.82;100.00;98418.41;5091046;28;20105;-40
2023/12/02 05:09:46;;;;;;;58.78;13.35;;;;;;;3.73;100.00;98420.66;5091050;28;20500;-40
2023/12/02 05:12:15;;;;;;;45.72;13.70;;;;;;;3.72;100.00;98416.34;5094046;28;20070;-42
2023/12/02 05:14:44;;;;;;;48.90;13.05;;;;;;;3.72;100.00;98420.75;5095091;28;20044;-44
2023/12/02 05:17:12;;;;;;;47.28;13.55;;;;;;;3.83;100.00;98417.47;5094856;28;20048;-40
2023/12/02 05:19:40;;;;;;;56.05;14.02;;;;;;;3.70;100.00;98420.88;5094955;28;20052;-41
2023/12/02 05:22:08;;;;;;;60.58;14.65;;;;;;;3.78;100.00;98417.75;5094765;28;20072;-41
2023/12/02 05:24:39;;;;;;;47.92;14.15;;;;;;;3.89;100.00;98401.28;5094575;28;20059;-40
2023/12/02 05:27:07;;;;;;;51.05;14.43;;;;;;;4.00;100.00;98410.19;5094487;28;20394;-40
2023/12/02 05:29:37;;;;;;;86.82;16.55;;;;;;;3.89;100.00;98407.41;5094451;28;20442;-42
2023/12/02 05:32:06;;;;;;;55.20;14.85;;;;;;;4.07;100.00;98412.47;5094630;28;20054;-42
2023/12/02 05:34:35;;;;;;;45.08;14.00;;;;;;;4.23;100.00;98418.44;5093380;28;20044;-40
2023/12/02 05:37:04;;;;;;;51.60;15.10;;;;;;;4.07;100.00;98409.84;5094520;28;20052;-41
2023/12/02 05:39:32;;;;;;;49.08;13.52;;;;;;;4.05;100.00;98404.63;5094512;28;20044;-40
2023/12/02 05:42:00;;;;;;;45.05;13.73;;;;;;;4.18;100.00;98404.72;5094303;28;20205;-40
2023/12/02 05:44:29;;;;;;;56.33;14.18;;;;;;;4.18;100.00;98412.63;5094533;28;20072;-42
2023/12/02 05:46:59;;;;;;;51.33;13.75;;;;;;;4.20;100.00;98414.22;5094556;28;20413;-40
2023/12/02 05:49:27;;;;;;;49.55;13.35;;;;;;;3.78;100.00;98423.03;5094334;28;20078;-41
2023/12/02 05:51:56;;;;;;;51.25;14.20;;;;;;;3.79;100.00;98414.19;5094227;28;20117;-41
2023/12/02 05:54:24;;;;;;;45.33;14.18;;;;;;;3.91;100.00;98416.06;5094244;28;20059;-42
2023/12/02 05:56:54;;;;;;;44.08;13.68;;;;;;;3.99;100.00;98424.34;5093949;28;20481;-41
2023/12/02 05:59:23;;;;;;;49.78;13.57;;;;;;;3.82;100.00;98413.13;5094171;28;20055;-41
2023/12/02 06:01:52;;;;;;;46.22;14.50;;;;;;;3.92;100.00;98404.56;5094029;28;20151;-40
2023/12/02 06:04:21;;;;;;;69.72;15.00;;;;;;;3.80;100.00;98394.78;5094006;28;20044;-40
2023/12/02 06:06:50;;;;;;;55.10;13.75;;;;;;;4.02;100.00;98396.91;5093900;28;20044;-40
2023/12/02 06:09:18;;;;;;;37.88;13.55;;;;;;;3.94;100.00;98397.38;5093788;28;20048;-40
2023/12/02 06:11:46;;;;;;;47.13;13.63;;;;;;;3.99;100.00;98391.84;5094048;28;20052;-42
2023/12/02 06:14:15;;;;;;;54.35;14.77;;;;;;;3.94;100.00;98386.00;5093927;28;20040;-40
2023/12/02 06:16:43;;;;;;;52.30;13.95;;;;;;;3.94;100.00;98418.50;5093639;28;20048;-41
2023/12/02 06:19:11;;;;;;;59.67;14.30;;;;;;;3.81;100.00;98427.28;5093706;28;20110;-40
2023/12/02 06:21:41;;;;;;;59.13;15.13;;;;;;;4.09;100.00;98413.22;5093316;28;20413;-39
2023/12/02 06:24:10;;;;;;;58.22;14.07;;;;;;;4.16;100.00;98438.28;5093607;28;20080;-41
2023/12/02 06:26:39;;;;;;;41.15;14.88;;;;;;;4.16;100.00;98430.38;5094152;28;20052;-44
2023/12/02 06:29:07;;;;;;;73.35;16.10;;;;;;;4.16;100.00;98435.63;5094265;28;20052;-41
2023/12/02 06:31:36;;;;;;;52.80;14.50;;;;;;;4.19;100.00;98438.94;5094604;28;20055;-42
2023/12/02 06:34:04;;;;;;;57.63;15.73;;;;;;;4.10;100.00;98438.66;5093914;28;20143;-40
2023/12/02 06:36:32;;;;;;;61.67;16.58;;;;;;;4.05;100.00;98456.53;5093878;28;20051;-40
2023/12/02 06:39:02;;;;;;;52.15;16.55;;;;;;;4.27;100.00;98454.28;5093701;28;20052;-41
2023/12/02 06:41:30;;;;;;;59.83;17.55;;;;;;;4.38;100.00;98445.69;5093320;28;20052;-42
2023/12/02 06:43:59;;;;;;;49.00;15.90;;;;;;;4.25;100.00;98453.53;5093344;28;20143;-40
2023/12/02 06:46:27;;;;;;;56.10;16.50;;;;;;;4.31;100.00;98455.78;5093157;28;20086;-41
2023/12/02 06:48:55;;;;;;;64.65;17.38;;;;;;;4.05;100.00;98456.53;5092979;28;20056;-42
2023/12/02 06:51:28;;;;;;;55.08;16.00;;;;;;;4.01;100.00;98445.34;5093237;28;20052;-40
2023/12/02 06:53:56;;;;;;;53.23;15.73;;;;;;;3.99;100.00;98444.59;5093105;28;20055;-42
2023/12/02 06:56:26;;;;;;;68.00;15.70;;;;;;;3.78;100.00;98430.94;5093439;28;20048;-41
2023/12/02 06:58:54;;;;;;;65.05;16.05;;;;;;;3.83;100.00;98442.03;5093232;28;20134;-40
2023/12/02 07:01:26;;;;;;;54.97;16.45;;;;;;;3.94;100.00;98447.50;5092820;28;20550;-41
2023/12/02 07:03:54;;;;;;;72.70;17.27;;;;;;;4.08;100.00;98445.81;5092859;28;20040;-41
2023/12/02 07:06:23;;;;;;;68.28;17.25;;;;;;;3.97;100.00;98438.56;5092978;28;20055;-40
2023/12/02 07:08:52;;;;;;;58.38;15.93;;;;;;;4.07;100.00;98434.44;5092577;28;20052;-40
2023/12/02 07:11:21;;;;;;;49.70;15.45;;;;;;;4.18;100.00;98437.22;5092571;28;20045;-43
2023/12/02 07:13:51;;;;;;;69.63;15.38;;;;;;;3.98;100.00;98450.81;5092815;28;20098;-41
2023/12/02 07:16:19;;;;;;;63.47;15.95;;;;;;;4.00;100.00;98448.94;5092498;28;20044;-41
2023/12/02 07:18:48;;;;;;;77.97;16.83;;;;;;;3.93;100.00;98443.19;5092687;28;20052;-40
2023/12/02 07:21:16;;;;;;;65.82;17.23;;;;;;;3.94;100.00;98438.75;5092597;28;20135;-42
2023/12/02 07:23:45;;;;;;;69.75;16.77;;;;;;;3.94;100.00;98444.88;5092355;28;20044;-41
2023/12/02 07:26:13;;;;;;;58.38;17.58;;;;;;;4.18;100.00;98471.53;5092914;28;20075;-40
2023/12/02 07:28:41;;;;;;;72.90;17.40;;;;;;;4.07;100.00;98459.97;5093190;28;20074;-40
2023/12/02 07:31:14;;;;;;;68.88;17.10;;;;;;;3.92;100.00;98446.75;5094140;28;20040;-42
2023/12/02 07:33:43;;;;;;;75.05;19.10;;;;;;;3.93;100.00;98435.25;5093280;28;20059;-43
2023/12/02 07:36:12;;;;;;;65.88;17.75;;;;;;;4.01;100.00;98425.09;5094135;28;20505;-41
2023/12/02 07:38:41;;;;;;;69.78;18.25;;;;;;;4.07;100.00;98454.69;5093479;28;20071;-40
2023/12/02 07:41:10;;;;;;;60.08;17.10;;;;;;;3.92;100.00;98449.41;5093032;28;20044;-40
2023/12/02 07:43:38;;;;;;;81.88;18.30;;;;;;;3.93;100.00;98427.34;5092841;28;20048;-41
2023/12/02 07:46:07;;;;;;;83.35;19.48;;;;;;;3.90;100.00;98426.69;5093623;28;20408;-39
2023/12/02 07:48:37;;;;;;;91.03;19.48;;;;;;;4.07;100.00;98429.16;5093500;28;20055;-41
2023/12/02 07:51:07;;;;;;;69.80;17.73;;;;;;;3.90;100.00;98419.63;5094193;28;20079;-41
2023/12/02 07:53:35;;;;;;;74.63;19.58;;;;;;;3.97;100.00;98418.31;5093652;28;20051;-41
2023/12/02 07:56:05;;;;;;;76.72;18.33;;;;;;;3.84;100.00;98417.38;5092843;28;20058;-40
2023/12/02 07:58:34;;;;;;;63.65;19.05;;;;;;;3.90;100.00;98414.34;5092330;28;20197;-39
2023/12/02 08:01:03;;;;;;;73.03;19.02;;;;;;;3.73;100.00;98414.56;5078737;28;20044;-40
2023/12/02 08:03:32;;;;;;;84.47;19.17;;;;;;;3.95;100.00;98424.63;5079010;28;20106;-39
2023/12/02 08:06:02;;;;;;;83.68;18.83;;;;;;;3.98;100.00;98419.16;5092820;28;20066;-41
2023/12/02 08:08:30;;;;;;;65.50;19.23;;;;;;;4.06;100.00;98431.88;5076334;28;20105;-40
2023/12/02 08:10:58;;;;;;;67.47;18.05;;;;;;;4.11;100.00;98432.44;5092618;28;20127;-39
2023/12/02 08:13:26;;;;;;;70.43;19.30;;;;;;;4.19;100.00;98438.06;5092528;28;20464;-40
2023/12/02 08:15:55;;;;;;;78.20;18.33;;;;;;;4.15;100.00;98426.00;5092225;28;20048;-40
2023/12/02 08:18:23;;;;;;;77.70;20.10;;;;;;;4.21;100.00;98430.91;5083984;28;20076;-38
2023/12/02 08:20:51;;;;;;;73.18;19.30;;;;;;;4.27;100.00;98436.66;5071706;28;20051;-40
2023/12/02 08:23:21;;;;;;;70.78;19.23;;;;;;;4.21;100.00;98441.47;5089397;28;20058;-41
2023/12/02 08:25:49;;;;;;;64.93;17.20;;;;;;;4.25;100.00;98448.25;5092092;28;20059;-41
2023/12/02 08:28:18;;;;;;;65.28;18.17;;;;;;;4.39;100.00;98455.28;5092623;28;20466;-41
2023/12/02 08:30:46;;;;;;;72.22;17.98;;;;;;;4.22;100.00;98458.97;5092216;28;20405;-41
2023/12/02 08:33:14;;;;;;;64.63;16.55;;;;;;;4.31;100.00;98461.06;5092617;28;20044;-41
2023/12/02 08:35:43;;;;;;;73.07;17.75;;;;;;;4.17;100.00;98458.44;5091566;28;20048;-42
2023/12/02 08:38:11;;;;;;;64.65;17.80;;;;;;;4.34;100.00;98463.47;5092236;28;20044;-41
2023/12/02 08:40:41;;;;;;;56.25;17.45;;;;;;;4.58;100.00;98483.06;5092373;28;20082;-40
2023/12/02 08:43:09;;;;;;;66.50;17.23;;;;;;;4.31;100.00;98482.16;5092464;28;20040;-40
2023/12/02 08:45:38;;;;;;;59.47;17.42;;;;;;;4.19;100.00;98467.09;5091628;28;20570;-39
2023/12/02 08:48:06;;;;;;;67.72;16.75;;;;;;;4.15;100.00;98458.53;5095822;28;20046;-40
2023/12/02 08:50:35;;;;;;;63.05;17.25;;;;;;;4.19;100.00;98452.13;5095677;28;20052;-45
2023/12/02 08:53:03;;;;;;;56.33;16.48;;;;;;;4.43;100.00;98456.78;5096549;28;20051;-42
2023/12/02 08:55:31;;;;;;;67.40;17.48;;;;;;;4.37;100.00;98446.63;5096381;28;20047;-40
2023/12/02 08:58:02;;;;;;;58.97;16.85;;;;;;;4.54;100.00;98449.91;5096795;28;20044;-41
2023/12/02 09:00:32;;;;;;;66.82;18.02;;;;;;;4.45;100.00;98447.00;5096440;28;20044;-41
2023/12/02 09:03:00;;;;;;;67.45;17.90;;;;;;;4.49;100.00;98451.97;5096059;28;20539;-40
2023/12/02 09:05:28;;;;;;;68.15;17.75;;;;;;;4.55;100.00;98462.16;5095622;28;20052;-40
2023/12/02 09:07:59;;;;;;;65.75;17.95;;;;;;;4.65;100.00;98456.28;5095193;28;20448;-42
2023/12/02 09:10:28;;;;;;;66.90;18.73;;;;;;;4.79;100.00;98456.22;5094718;28;20070;-41
2023/12/02 09:12:56;;;;;;;51.95;17.58;;;;;;;4.97;100.00;98457.66;5094926;28;20052;-40
2023/12/02 09:15:47;;;;;;;58.13;18.80;;;;;;;4.90;100.00;98440.50;5094721;28;20044;-40
2023/12/02 09:18:29;;;;;;;67.13;17.90;;;;;;;4.74;100.00;98445.13;5091771;28;20052;-39
2023/12/02 09:20:57;;;;;;;55.03;18.00;;;;;;;4.84;100.00;98436.50;5094786;28;20055;-44
2023/12/02 09:23:26;;;;;;;60.22;17.05;;;;;;;4.83;100.00;98452.44;5094643;28;20545;-40
2023/12/02 09:26:01;;;;;;;49.80;18.23;;;;;;;4.83;100.00;98439.25;5094317;28;20060;-40
2023/12/02 09:28:30;;;;;;;55.45;18.10;;;;;;;4.74;100.00;98424.00;5094655;28;20040;-40
2023/12/02 09:31:03;;;;;;;53.15;18.13;;;;;;;4.95;100.00;98433.13;5094648;28;20048;-40
2023/12/02 09:33:38;;;;;;;59.88;17.27;;;;;;;4.84;100.00;98420.63;5094730;28;20087;-42
2023/12/02 09:36:24;;;;;;;50.47;16.80;;;;;;;4.95;100.00;98425.22;5094555;28;20052;-41
2023/12/02 09:38:53;;;;;;;51.25;18.13;;;;;;;5.12;100.00;98432.88;5094770;28;20478;-42
2023/12/02 09:41:34;;;;;;;54.60;17.70;;;;;;;5.10;100.00;98426.81;5094458;28;20055;-40
2023/12/02 09:44:19;;;;;;;51.90;17.17;;;;;;;4.93;100.00;98413.91;5094333;28;20436;-41
2023/12/02 09:47:04;;;;;;;48.72;16.85;;;;;;;5.13;100.00;98415.22;5092712;28;20052;-41
2023/12/02 09:49:54;;;;;;;59.50;20.60;;;;;;;5.10;100.00;98424.19;5092813;28;20051;-41
2023/12/02 09:52:49;;;;;;;57.53;18.63;;;;;;;5.28;100.00;98423.91;5094064;28;20535;-40
2023/12/02 09:55:26;;;;;;;51.45;17.45;;;;;;;5.26;100.00;98416.06;5094193;28;20044;-41
2023/12/02 09:58:04;;;;;;;51.00;17.48;;;;;;;5.29;100.00;98410.56;5093647;28;20048;-41
2023/12/02 10:00:40;;;;;;;53.15;17.92;;;;;;;5.45;100.00;98413.88;5093758;28;20390;-40
2023/12/02 10:03:28;;;;;;;55.22;18.52;;;;;;;5.34;100.00;98407.63;5093630;28;20117;-42
2023/12/02 10:06:07;;;;;;;62.22;19.15;;;;;;;5.38;100.00;98393.25;5093818;28;20133;-40
2023/12/02 10:08:49;;;;;;;56.90;18.83;;;;;;;5.36;100.00;98389.84;5093718;28;20040;-41
2023/12/02 10:11:24;;;;;;;46.35;16.63;;;;;;;5.33;100.00;98392.72;5093535;28;20501;-40
2023/12/02 10:13:59;;;;;;;50.78;17.83;;;;;;;5.41;100.00;98387.75;5093630;28;20047;-41
2023/12/02 10:16:31;;;;;;;52.55;17.15;;;;;;;5.16;100.00;98400.00;5094018;28;20052;-41
2023/12/02 10:19:03;;;;;;;56.45;17.50;;;;;;;5.21;100.00;98390.88;5094097;28;20274;-41
2023/12/02 10:21:35;;;;;;;48.55;17.40;;;;;;;5.28;100.00;98386.88;5093865;28;20409;-41
2023/12/02 10:24:09;;;;;;;55.55;18.13;;;;;;;5.25;100.00;98382.66;5093655;28;20101;-40
2023/12/02 10:26:43;;;;;;;49.83;17.05;;;;;;;5.17;100.00;98387.63;5093265;28;20101;-41
2023/12/02 10:29:17;;;;;;;50.03;16.15;;;;;;;5.23;100.00;98383.72;5093348;28;20131;-41
2023/12/02 10:32:03;;;;;;;46.10;15.73;;;;;;;5.30;100.00;98390.25;5093283;28;20044;-42
2023/12/02 10:34:39;;;;;;;45.03;15.25;;;;;;;5.31;100.00;98387.53;5093310;28;20044;-41
2023/12/02 10:37:10;;;;;;;49.88;16.02;;;;;;;5.21;100.00;98381.19;5093548;28;20433;-42
2023/12/02 10:39:42;;;;;;;46.13;15.40;;;;;;;5.20;100.00;98383.91;5093405;28;20044;-42
2023/12/02 10:42:17;;;;;;;44.57;15.13;;;;;;;5.36;100.00;98389.84;5093212;28;20105;-45
2023/12/02 10:44:56;;;;;;;48.25;15.75;;;;;;;5.24;100.00;98366.91;5093346;28;20417;-41
2023/12/02 10:47:25;;;;;;;46.17;16.08;;;;;;;5.28;100.00;98378.97;5093226;28;20087;-41
2023/12/02 10:49:55;;;;;;;56.33;17.75;;;;;;;5.42;100.00;98360.38;5093317;28;20079;-42
2023/12/02 10:52:27;;;;;;;49.00;16.40;;;;;;;5.31;100.00;98366.41;5092984;28;20058;-41
2023/12/02 10:55:03;;;;;;;54.67;18.17;;;;;;;5.18;100.00;98347.88;5092935;28;20086;-41
2023/12/02 10:57:32;;;;;;;56.72;17.90;;;;;;;5.22;100.00;98345.88;5093001;28;20048;-41
2023/12/02 11:00:07;;;;;;;59.72;18.63;;;;;;;5.25;100.00;98345.66;5093209;28;20104;-41
2023/12/02 11:02:43;;;;;;;74.82;19.00;;;;;;;5.03;100.00;98348.94;5092933;28;20048;-41
2023/12/02 11:05:21;;;;;;;73.50;18.80;;;;;;;5.07;100.00;98338.97;5092828;28;20048;-40
2023/12/02 11:07:53;;;;;;;77.30;20.83;;;;;;;4.98;100.00;98337.81;5093100;28;20048;-41
2023/12/02 11:10:31;;;;;;;81.97;20.40;;;;;;;5.00;100.00;98338.53;5092088;28;20168;-40
2023/12/02 11:13:04;;;;;;;77.55;20.55;;;;;;;5.04;100.00;98326.00;5093043;28;20051;-41
2023/12/02 11:15:41;;;;;;;77.30;21.13;;;;;;;5.02;100.00;98323.44;5092890;28;20055;-42
2023/12/02 11:18:21;;;;;;;72.70;20.95;;;;;;;5.21;100.00;98317.75;5092726;28;20070;-41
2023/12/02 11:20:57;;;;;;;62.20;19.83;;;;;;;5.18;100.00;98310.00;5092514;28;20581;-40
2023/12/02 11:23:50;;;;;;;78.75;19.48;;;;;;;4.75;100.00;98305.03;5092458;28;20056;-44
2023/12/02 11:26:29;;;;;;;68.35;18.35;;;;;;;5.03;100.00;98314.56;5092531;28;20481;-41
2023/12/02 11:29:06;;;;;;;65.88;17.92;;;;;;;5.18;100.00;98296.81;5092427;28;20048;-42
2023/12/02 11:32:12;;;;;;;61.50;19.05;;;;;;;5.00;100.00;98296.25;5092282;28;20048;-41
2023/12/02 11:34:57;;;;;;;64.47;17.42;;;;;;;4.95;100.00;98285.19;5092501;28;20047;-40